Time;durP1;ratioP1;P1;durP2;ratioP2;P2;SDS_P1;SDS_P2;PMS_P1;PMS_P2;Temp;Humidity;BMP_temperature;BMP_pressure;BME280_temperature;BME280_humidity;BME280_pressure;Samples;Min_cycle;Max_cycle;Signal;HPM_P1;HPM_P2
2023/03/12 00:01:46;;;;;;;12.00;5.77;;;7.60;98.60;;;;;;5110711;28;20195;-74
2023/03/12 00:04:11;;;;;;;13.50;5.70;;;7.50;98.60;;;;;;5132877;28;20244;-75
2023/03/12 00:06:37;;;;;;;11.53;5.73;;;7.70;98.10;;;;;;5135539;27;20208;-74
2023/03/12 00:09:03;;;;;;;9.57;5.20;;;7.80;97.80;;;;;;5118211;27;20384;-74
2023/03/12 00:11:29;;;;;;;12.23;5.03;;;7.80;98.20;;;;;;5104799;28;20205;-75
2023/03/12 00:13:56;;;;;;;13.40;5.67;;;7.70;98.10;;;;;;5115928;28;20183;-75
2023/03/12 00:16:23;;;;;;;8.93;4.77;;;7.60;98.70;;;;;;5097835;28;20197;-74
2023/03/12 00:18:51;;;;;;;10.67;4.20;;;7.60;98.60;;;;;;5115665;28;20169;-74
2023/03/12 00:21:19;;;;;;;9.33;4.27;;;7.50;99.20;;;;;;5116800;27;20258;-74
2023/03/12 00:23:46;;;;;;;13.27;4.90;;;7.50;99.40;;;;;;5097426;28;20620;-74
2023/03/12 00:26:14;;;;;;;12.97;4.90;;;7.40;99.70;;;;;;5115838;28;20150;-74
2023/03/12 00:28:40;;;;;;;8.13;3.97;;;7.30;99.90;;;;;;5097178;28;20259;-74
2023/03/12 00:31:32;;;;;;;8.93;3.80;;;7.20;99.90;;;;;;5132617;27;20178;-74
2023/03/12 00:34:00;;;;;;;9.43;4.10;;;7.20;99.90;;;;;;5131562;27;20205;-75
2023/03/12 00:36:28;;;;;;;8.37;3.87;;;7.20;99.90;;;;;;5135841;27;20165;-73
2023/03/12 00:38:56;;;;;;;10.83;3.50;;;7.20;99.90;;;;;;5136298;27;20188;-74
2023/03/12 00:41:23;;;;;;;8.53;3.43;;;7.30;99.90;;;;;;5116232;27;20242;-74
2023/03/12 00:43:50;;;;;;;9.60;3.87;;;7.30;99.90;;;;;;5097303;28;20221;-75
2023/03/12 00:46:17;;;;;;;6.10;3.57;;;7.20;99.90;;;;;;5115236;28;20150;-75
2023/03/12 00:48:42;;;;;;;10.17;3.50;;;7.10;99.90;;;;;;5115467;28;20192;-75
2023/03/12 00:51:08;;;;;;;6.37;2.97;;;7.00;99.90;;;;;;5132372;27;20523;-74
2023/03/12 00:53:34;;;;;;;6.63;2.83;;;7.00;99.90;;;;;;5135815;27;20525;-73
2023/03/12 00:56:01;;;;;;;7.97;3.87;;;7.00;99.90;;;;;;5116787;27;20216;-75
2023/03/12 00:58:26;;;;;;;6.00;2.90;;;7.00;99.90;;;;;;5135841;27;20188;-75
2023/03/12 01:00:52;;;;;;;9.00;3.03;;;6.80;99.90;;;;;;5120589;27;20169;-73
2023/03/12 01:03:18;;;;;;;6.40;3.17;;;6.90;99.90;;;;;;5114936;28;20157;-73
2023/03/12 01:05:44;;;;;;;10.87;3.33;;;7.00;99.90;;;;;;5096304;28;20185;-75
2023/03/12 01:08:11;;;;;;;8.33;2.67;;;6.90;99.90;;;;;;5114810;28;20694;-74
2023/03/12 01:10:40;;;;;;;8.20;3.20;;;7.10;99.90;;;;;;5108388;27;20621;-74
2023/03/12 01:13:06;;;;;;;6.80;3.00;;;7.10;99.90;;;;;;5135003;27;20172;-73
2023/03/12 01:15:31;;;;;;;5.47;2.73;;;7.00;99.90;;;;;;5116677;27;20175;-74
2023/03/12 01:17:57;;;;;;;6.73;2.63;;;6.80;99.90;;;;;;5134566;27;20175;-74
2023/03/12 01:20:23;;;;;;;9.50;3.27;;;6.60;99.90;;;;;;5124498;27;20282;-74
2023/03/12 01:22:49;;;;;;;4.63;3.10;;;6.50;99.90;;;;;;5114439;27;20169;-74
2023/03/12 01:25:15;;;;;;;6.57;2.40;;;6.50;99.90;;;;;;5114139;28;20165;-74
2023/03/12 01:27:40;;;;;;;5.63;2.27;;;6.40;99.90;;;;;;5114364;28;20195;-73
2023/03/12 01:30:07;;;;;;;6.90;2.40;;;6.30;99.90;;;;;;5103213;27;20670;-73
2023/03/12 01:32:33;;;;;;;6.33;2.40;;;6.20;99.90;;;;;;5134923;27;20165;-75
2023/03/12 01:34:59;;;;;;;5.00;2.30;;;6.20;99.90;;;;;;5134547;27;20164;-75
2023/03/12 01:37:25;;;;;;;6.13;2.47;;;6.30;99.90;;;;;;5134988;27;20168;-73
2023/03/12 01:39:51;;;;;;;5.50;2.63;;;6.10;99.90;;;;;;5129376;27;20160;-73
2023/03/12 01:42:16;;;;;;;4.13;2.33;;;6.20;99.90;;;;;;5096123;28;20570;-74
2023/03/12 01:44:52;;;;;;;6.10;2.50;;;6.30;99.90;;;;;;5114037;28;20171;-74
2023/03/12 01:47:18;;;;;;;6.90;2.90;;;6.50;99.90;;;;;;5114078;28;20184;-74
2023/03/12 01:49:45;;;;;;;7.03;2.70;;;6.50;99.90;;;;;;5117553;27;20227;-73
2023/03/12 01:52:18;;;;;;;7.53;2.20;;;6.60;99.90;;;;;;5134685;27;20242;-73
2023/03/12 01:55:08;;;;;;;6.03;2.37;;;6.70;99.90;;;;;;5134693;27;20159;-74
2023/03/12 01:57:51;;;;;;;4.60;2.53;;;6.50;99.90;;;;;;5134617;27;20263;-74
2023/03/12 02:00:24;;;;;;;6.07;2.03;;;6.40;99.90;;;;;;5125803;27;20163;-74
2023/03/12 02:02:53;;;;;;;5.73;2.40;;;6.30;99.90;;;;;;5113860;28;20181;-74
2023/03/12 02:05:30;;;;;;;5.03;2.33;;;6.10;99.90;;;;;;5113582;28;20648;-74
2023/03/12 02:07:57;;;;;;;6.27;2.40;;;6.10;99.90;;;;;;5113485;28;20202;-73
2023/03/12 02:10:24;;;;;;;4.77;2.07;;;6.00;99.90;;;;;;5104434;27;20161;-73
2023/03/12 02:12:50;;;;;;;8.47;2.50;;;6.00;99.90;;;;;;5133912;27;20179;-73
2023/03/12 02:15:16;;;;;;;4.63;2.40;;;6.00;99.90;;;;;;5134304;27;20145;-73
2023/03/12 02:17:41;;;;;;;7.33;2.30;;;6.20;99.90;;;;;;5135030;27;20172;-75
2023/03/12 02:20:21;;;;;;;5.47;2.10;;;6.20;99.90;;;;;;5128046;27;20173;-73
2023/03/12 02:23:29;;;;;;;3.67;2.23;;;6.40;99.90;;;;;;5114218;28;20242;-73
2023/03/12 02:25:56;;;;;;;5.37;1.83;;;6.20;99.90;;;;;;5100737;28;20560;-74
2023/03/12 02:28:26;;;;;;;5.33;2.67;;;6.00;99.90;;;;;;5118875;27;20272;-74
2023/03/12 02:30:55;;;;;;;5.93;2.60;;;6.10;99.90;;;;;;5115400;27;20250;-75
2023/03/12 02:33:21;;;;;;;8.57;2.80;;;6.00;99.90;;;;;;5133426;27;20223;-74
2023/03/12 02:35:47;;;;;;;6.73;2.33;;;6.10;99.90;;;;;;5115265;27;20155;-73
2023/03/12 02:38:40;;;;;;;4.40;1.83;;;6.20;99.90;;;;;;5111531;28;20254;-74
2023/03/12 02:41:25;;;;;;;4.10;2.23;;;6.30;99.90;;;;;;5113013;28;20155;-73
2023/03/12 02:44:04;;;;;;;2.97;1.93;;;6.20;99.90;;;;;;5112876;28;20158;-73
2023/03/12 02:46:34;;;;;;;6.50;2.57;;;6.30;99.90;;;;;;5112966;28;20253;-74
2023/03/12 02:49:01;;;;;;;5.07;2.00;;;6.30;99.90;;;;;;5122418;27;20663;-74
2023/03/12 02:51:27;;;;;;;7.40;2.20;;;6.20;99.90;;;;;;5115186;28;20155;-73
2023/03/12 02:53:53;;;;;;;6.83;1.93;;;6.10;99.90;;;;;;5133441;28;20527;-74
2023/03/12 02:56:21;;;;;;;3.77;2.00;;;6.20;99.90;;;;;;5112737;28;20264;-74
2023/03/12 02:58:47;;;;;;;4.67;2.00;;;6.10;99.90;;;;;;5094685;28;20270;-76
2023/03/12 03:01:13;;;;;;;5.60;2.37;;;6.10;99.90;;;;;;5113184;28;20649;-74
2023/03/12 03:03:38;;;;;;;5.20;1.90;;;6.10;99.90;;;;;;5115097;28;20632;-74
2023/03/12 03:06:04;;;;;;;11.07;2.43;;;6.10;99.90;;;;;;5114435;28;20177;-74
2023/03/12 03:08:31;;;;;;;5.37;2.27;;;5.90;99.90;;;;;;5131566;28;20647;-74
2023/03/12 03:10:56;;;;;;;6.80;2.73;;;6.10;99.90;;;;;;5133389;28;20612;-74
2023/03/12 03:13:22;;;;;;;5.43;2.30;;;6.00;99.90;;;;;;5133404;28;20169;-73
2023/03/12 03:15:47;;;;;;;3.83;1.93;;;6.10;99.90;;;;;;5114615;28;20172;-73
2023/03/12 03:18:13;;;;;;;4.33;2.10;;;6.20;99.90;;;;;;5115583;28;20173;-73
2023/03/12 03:20:39;;;;;;;5.50;2.20;;;6.30;99.90;;;;;;5112829;28;20161;-74
2023/03/12 03:23:04;;;;;;;4.10;2.10;;;6.50;99.90;;;;;;5094642;28;20169;-76
2023/03/12 03:25:31;;;;;;;5.00;2.07;;;6.30;99.90;;;;;;5112972;28;20177;-75
2023/03/12 03:27:57;;;;;;;4.67;2.10;;;6.40;99.90;;;;;;5126385;28;20210;-76
2023/03/12 03:30:22;;;;;;;10.80;2.40;;;6.30;99.90;;;;;;5133098;28;20234;-75
2023/03/12 03:32:49;;;;;;;5.83;2.20;;;6.20;99.90;;;;;;5133420;28;20162;-75
2023/03/12 03:35:16;;;;;;;6.27;3.17;;;6.20;99.90;;;;;;5127776;28;20160;-76
2023/03/12 03:37:41;;;;;;;6.03;2.43;;;6.20;99.90;;;;;;5094717;28;20160;-76
2023/03/12 03:40:11;;;;;;;7.07;2.20;;;6.40;99.90;;;;;;5113410;28;20676;-76
2023/03/12 03:42:38;;;;;;;5.77;2.10;;;6.40;99.90;;;;;;5116873;28;20171;-76
2023/03/12 03:45:05;;;;;;;4.57;2.07;;;6.50;99.90;;;;;;5101690;27;20566;-76
2023/03/12 03:47:30;;;;;;;7.10;2.57;;;6.60;99.90;;;;;;5137100;27;20187;-76
2023/03/12 03:49:56;;;;;;;5.20;2.47;;;6.40;99.90;;;;;;5137160;27;20251;-76
2023/03/12 03:52:24;;;;;;;7.10;2.40;;;6.60;99.90;;;;;;5137540;27;20683;-76
2023/03/12 03:54:49;;;;;;;6.63;2.70;;;6.70;99.90;;;;;;5135714;27;20152;-76
2023/03/12 03:57:15;;;;;;;3.60;2.07;;;6.80;99.90;;;;;;5116546;28;20726;-76
2023/03/12 03:59:44;;;;;;;5.50;2.90;;;6.80;99.90;;;;;;5102198;27;20176;-76
2023/03/12 04:02:09;;;;;;;5.47;2.60;;;6.70;99.90;;;;;;5137093;27;20233;-76
2023/03/12 04:04:36;;;;;;;6.50;2.27;;;6.70;99.90;;;;;;5136965;27;20251;-76
2023/03/12 04:07:01;;;;;;;5.77;2.30;;;6.70;99.90;;;;;;5116573;27;20684;-76
2023/03/12 04:09:29;;;;;;;7.47;2.90;;;6.60;99.90;;;;;;5116274;28;20287;-76
2023/03/12 04:11:55;;;;;;;5.70;2.57;;;6.70;99.90;;;;;;5098235;28;20160;-76
2023/03/12 04:14:21;;;;;;;7.87;3.27;;;6.90;99.90;;;;;;5115805;28;20247;-76
2023/03/12 04:16:46;;;;;;;6.60;2.80;;;6.90;99.90;;;;;;5115397;27;20207;-75
2023/03/12 04:19:12;;;;;;;4.67;2.43;;;6.90;99.90;;;;;;5136433;27;20171;-76
2023/03/12 04:21:38;;;;;;;3.77;2.43;;;7.00;99.90;;;;;;5136548;27;20151;-76
2023/03/12 04:24:06;;;;;;;8.20;2.90;;;7.00;99.90;;;;;;5118098;27;20207;-76
2023/03/12 04:26:32;;;;;;;8.10;3.20;;;6.90;99.90;;;;;;5120897;27;20617;-77
2023/03/12 04:28:59;;;;;;;6.97;3.50;;;6.70;99.90;;;;;;5097651;28;20208;-74
2023/03/12 04:31:25;;;;;;;8.40;2.97;;;6.50;99.90;;;;;;5116052;28;20184;-74
2023/03/12 04:33:51;;;;;;;6.37;3.10;;;6.40;99.90;;;;;;5115580;28;20217;-73
2023/03/12 04:36:17;;;;;;;6.37;3.70;;;6.50;99.90;;;;;;5127976;27;20175;-75
2023/03/12 04:38:42;;;;;;;11.20;4.13;;;6.60;99.90;;;;;;5135901;27;20633;-73
2023/03/12 04:41:11;;;;;;;8.57;3.00;;;6.70;99.90;;;;;;5117418;27;20171;-74
2023/03/12 04:43:37;;;;;;;10.40;3.30;;;6.70;99.90;;;;;;5113920;27;20168;-73
2023/03/12 04:46:04;;;;;;;6.93;3.40;;;6.80;99.90;;;;;;5115170;28;20152;-74
2023/03/12 04:48:29;;;;;;;6.70;3.37;;;6.60;99.90;;;;;;5116383;28;20532;-74
2023/03/12 04:50:56;;;;;;;9.17;4.00;;;6.60;99.90;;;;;;5116081;28;20158;-75
2023/03/12 04:53:22;;;;;;;5.40;3.43;;;6.60;99.90;;;;;;5115422;27;20152;-73
2023/03/12 04:55:48;;;;;;;6.73;3.53;;;6.70;99.90;;;;;;5097925;28;20209;-75
2023/03/12 04:58:14;;;;;;;6.83;3.50;;;6.70;99.90;;;;;;5097096;28;20173;-75
2023/03/12 05:00:40;;;;;;;5.97;3.67;;;6.80;99.90;;;;;;5115169;28;20539;-74
2023/03/12 05:03:07;;;;;;;10.03;4.27;;;6.90;99.90;;;;;;5115147;28;20626;-74
2023/03/12 05:05:33;;;;;;;7.17;3.83;;;7.00;99.90;;;;;;5113925;27;20653;-75
2023/03/12 05:07:58;;;;;;;7.93;3.93;;;6.80;99.90;;;;;;5135295;27;20203;-74
2023/03/12 05:10:24;;;;;;;7.93;3.60;;;6.80;99.90;;;;;;5135524;27;20183;-74
2023/03/12 05:12:50;;;;;;;7.33;4.10;;;6.90;99.90;;;;;;5135196;27;20155;-75
2023/03/12 05:15:16;;;;;;;7.17;4.30;;;6.70;99.90;;;;;;5120340;27;20169;-77
2023/03/12 05:17:43;;;;;;;8.03;4.23;;;6.60;99.90;;;;;;5096469;28;20160;-74
2023/03/12 05:20:09;;;;;;;5.73;4.00;;;6.60;99.90;;;;;;5114634;28;20625;-74
2023/03/12 05:22:35;;;;;;;7.93;4.07;;;6.50;99.90;;;;;;5096430;28;20305;-74
2023/03/12 05:25:02;;;;;;;11.00;4.23;;;6.50;99.90;;;;;;5125674;27;20658;-74
2023/03/12 05:27:27;;;;;;;8.23;4.77;;;6.40;99.90;;;;;;5134781;27;20203;-74
2023/03/12 05:29:53;;;;;;;7.40;4.23;;;6.50;99.90;;;;;;5135173;27;20295;-74
2023/03/12 05:32:19;;;;;;;6.53;4.30;;;6.60;99.90;;;;;;5134731;27;20171;-75
2023/03/12 05:34:44;;;;;;;9.23;4.73;;;6.70;99.90;;;;;;5133249;27;20615;-74
2023/03/12 05:37:10;;;;;;;9.97;5.10;;;6.60;99.90;;;;;;5116202;27;20255;-74
2023/03/12 05:39:37;;;;;;;8.67;5.30;;;6.50;99.90;;;;;;5135153;27;20207;-75
2023/03/12 05:42:03;;;;;;;9.30;5.40;;;6.50;99.90;;;;;;5116167;27;20183;-74
2023/03/12 05:44:29;;;;;;;9.33;5.50;;;6.70;99.90;;;;;;5097395;28;20177;-74
2023/03/12 05:46:55;;;;;;;9.17;6.30;;;6.90;99.90;;;;;;5113929;28;20321;-73
2023/03/12 05:49:21;;;;;;;9.17;5.07;;;6.70;99.90;;;;;;5095863;28;20192;-74
2023/03/12 05:51:47;;;;;;;10.63;6.37;;;6.80;99.90;;;;;;5114092;28;20257;-74
2023/03/12 05:54:15;;;;;;;10.87;7.17;;;6.90;99.90;;;;;;5110511;27;20187;-74
2023/03/12 05:56:40;;;;;;;11.80;6.53;;;6.90;99.90;;;;;;5133758;27;20647;-74
2023/03/12 05:59:06;;;;;;;11.20;6.10;;;7.00;99.90;;;;;;5115855;27;20174;-74
2023/03/12 06:01:32;;;;;;;9.47;6.40;;;7.00;99.90;;;;;;5134370;27;20621;-74
2023/03/12 06:03:58;;;;;;;11.07;7.43;;;7.00;99.90;;;;;;5102346;28;20648;-74
2023/03/12 06:06:23;;;;;;;11.20;6.83;;;7.10;99.90;;;;;;5095049;28;20197;-74
2023/03/12 06:08:50;;;;;;;13.70;7.57;;;7.10;99.90;;;;;;5095394;28;20599;-73
2023/03/12 06:11:16;;;;;;;10.73;7.33;;;7.20;99.90;;;;;;5095213;28;20629;-74
2023/03/12 06:13:42;;;;;;;12.40;7.30;;;7.10;99.90;;;;;;5123247;27;20179;-73
2023/03/12 06:16:17;;;;;;;10.53;7.67;;;7.20;99.90;;;;;;5134100;27;20168;-73
2023/03/12 06:18:42;;;;;;;12.43;8.00;;;7.20;99.90;;;;;;5134105;27;20257;-77
2023/03/12 06:21:15;;;;;;;13.30;8.50;;;7.30;99.90;;;;;;5133986;27;20185;-76
2023/03/12 06:23:41;;;;;;;14.30;7.73;;;7.30;99.90;;;;;;5124521;27;20187;-76
2023/03/12 06:26:08;;;;;;;11.70;8.43;;;7.30;99.90;;;;;;5113232;28;20167;-77
2023/03/12 06:28:35;;;;;;;16.07;8.67;;;7.30;99.90;;;;;;5095139;28;20186;-76
2023/03/12 06:31:01;;;;;;;10.07;7.70;;;7.20;99.90;;;;;;5113397;28;20307;-76
2023/03/12 06:33:26;;;;;;;11.50;7.70;;;7.20;99.90;;;;;;5120148;27;20194;-76
2023/03/12 06:35:55;;;;;;;13.50;8.47;;;7.20;99.90;;;;;;5115436;27;20212;-77
2023/03/12 06:38:21;;;;;;;14.80;9.27;;;7.40;99.90;;;;;;5133545;27;20191;-75
2023/03/12 06:41:09;;;;;;;13.67;8.83;;;7.40;99.90;;;;;;5133995;27;20173;-76
2023/03/12 06:43:36;;;;;;;13.67;9.53;;;7.60;99.90;;;;;;5126677;27;20177;-76
2023/03/12 06:46:04;;;;;;;13.70;9.13;;;7.70;99.90;;;;;;5112803;28;20195;-75
2023/03/12 06:48:40;;;;;;;16.23;9.93;;;7.80;99.90;;;;;;5113526;28;20196;-76
2023/03/12 06:51:07;;;;;;;15.67;9.70;;;7.90;99.90;;;;;;5113179;28;20575;-76
2023/03/12 06:53:33;;;;;;;12.70;8.90;;;7.80;99.90;;;;;;5114309;28;20175;-76
2023/03/12 06:55:58;;;;;;;13.73;9.60;;;7.70;99.90;;;;;;5127428;28;20168;-75
2023/03/12 06:58:24;;;;;;;12.27;9.03;;;7.70;99.90;;;;;;5133257;28;20184;-75
2023/03/12 07:00:51;;;;;;;15.03;9.73;;;7.70;99.90;;;;;;5133422;28;20261;-75
2023/03/12 07:03:16;;;;;;;15.03;9.90;;;7.80;99.90;;;;;;5134020;28;20515;-76
2023/03/12 07:05:47;;;;;;;17.80;9.93;;;7.90;99.90;;;;;;5108863;28;20214;-76
2023/03/12 07:08:13;;;;;;;16.07;10.53;;;7.90;99.90;;;;;;5112624;28;20248;-75
2023/03/12 07:10:39;;;;;;;17.17;10.53;;;8.10;99.90;;;;;;5113235;28;20168;-75
2023/03/12 07:13:06;;;;;;;16.00;10.17;;;8.00;99.90;;;;;;5112843;28;20610;-75
2023/03/12 07:15:33;;;;;;;18.23;11.20;;;7.90;99.90;;;;;;5114847;27;20162;-75
2023/03/12 07:18:00;;;;;;;17.63;10.17;;;8.10;99.90;;;;;;5117045;28;20225;-77
2023/03/12 07:20:25;;;;;;;14.43;10.03;;;8.30;99.90;;;;;;5098737;28;20180;-76
2023/03/12 07:22:51;;;;;;;17.07;10.63;;;8.30;99.90;;;;;;5116492;28;20539;-77
2023/03/12 07:25:17;;;;;;;16.17;10.77;;;8.30;99.90;;;;;;5118036;27;20154;-75
2023/03/12 07:27:42;;;;;;;20.43;11.03;;;8.40;99.90;;;;;;5116852;28;20183;-76
2023/03/12 07:30:08;;;;;;;22.00;11.03;;;8.40;99.90;;;;;;5113877;27;20321;-76
2023/03/12 07:32:35;;;;;;;22.90;11.77;;;8.30;99.90;;;;;;5136967;27;20215;-76
2023/03/12 07:35:02;;;;;;;20.60;11.33;;;8.40;99.90;;;;;;5136952;27;20553;-76
2023/03/12 07:37:28;;;;;;;19.03;11.83;;;8.50;99.90;;;;;;5136675;27;20161;-76
2023/03/12 07:39:54;;;;;;;19.77;12.10;;;8.50;99.90;;;;;;5137076;27;20210;-77
2023/03/12 07:42:21;;;;;;;23.40;12.73;;;8.50;99.90;;;;;;5136954;27;20161;-75
2023/03/12 07:44:46;;;;;;;20.07;11.97;;;8.60;99.90;;;;;;5125988;27;20187;-75
2023/03/12 07:47:12;;;;;;;22.43;11.43;;;8.60;99.90;;;;;;5116119;28;20197;-76
2023/03/12 07:49:40;;;;;;;24.60;12.03;;;8.60;99.90;;;;;;5116226;28;20164;-76
2023/03/12 07:52:10;;;;;;;26.97;12.40;;;8.70;99.90;;;;;;5117003;27;20235;-76
2023/03/12 07:54:37;;;;;;;32.40;12.87;;;8.90;99.90;;;;;;5136392;27;20292;-75
2023/03/12 07:57:03;;;;;;;31.97;13.83;;;9.00;99.90;;;;;;5136858;27;20196;-76
2023/03/12 07:59:29;;;;;;;27.50;13.77;;;9.00;99.90;;;;;;5105838;27;20626;-75
2023/03/12 08:01:55;;;;;;;37.43;13.67;;;9.00;99.90;;;;;;5135834;27;20173;-76
2023/03/12 08:04:20;;;;;;;41.40;14.60;;;9.10;99.90;;;;;;5098422;28;20171;-77
2023/03/12 08:06:47;;;;;;;36.73;13.97;;;9.10;99.90;;;;;;5097563;28;20303;-75
2023/03/12 08:09:12;;;;;;;37.73;13.43;;;8.90;99.90;;;;;;5115896;28;20169;-75
2023/03/12 08:11:38;;;;;;;39.33;12.87;;;8.90;99.90;;;;;;5116227;28;20188;-76
2023/03/12 08:14:04;;;;;;;41.40;14.93;;;8.90;99.90;;;;;;5116794;27;20614;-76
2023/03/12 08:16:30;;;;;;;46.70;15.57;;;9.00;99.90;;;;;;5117109;27;20596;-75
2023/03/12 08:18:56;;;;;;;50.87;16.07;;;9.00;99.90;;;;;;5115773;27;20170;-75
2023/03/12 08:21:22;;;;;;;41.70;14.10;;;9.10;99.90;;;;;;5115809;28;20236;-76
2023/03/12 08:23:48;;;;;;;48.43;15.27;;;9.30;99.90;;;;;;5127193;27;20197;-76
2023/03/12 08:26:13;;;;;;;43.63;14.37;;;9.50;99.90;;;;;;5135900;27;20161;-75
2023/03/12 08:28:40;;;;;;;52.93;15.27;;;9.50;99.90;;;;;;5114406;28;20186;-77
2023/03/12 08:31:06;;;;;;;51.53;14.03;;;9.50;99.90;;;;;;5117044;27;20579;-76
2023/03/12 08:33:32;;;;;;;47.90;15.03;;;9.40;99.90;;;;;;5113101;28;20540;-76
2023/03/12 08:35:57;;;;;;;45.23;12.77;;;9.60;99.90;;;;;;5097158;28;20168;-77
2023/03/12 08:38:23;;;;;;;44.77;13.33;;;9.60;99.90;;;;;;5114909;28;20158;-76
2023/03/12 08:40:56;;;;;;;48.63;12.60;;;9.70;99.90;;;;;;5115421;28;20267;-75
2023/03/12 08:43:22;;;;;;;51.83;13.00;;;9.80;99.90;;;;;;5116915;27;20165;-77
2023/03/12 08:45:59;;;;;;;35.50;11.77;;;10.00;99.90;;;;;;5136090;27;20158;-75
2023/03/12 08:48:25;;;;;;;41.67;11.67;;;10.10;99.90;;;;;;5135198;27;20199;-77
2023/03/12 08:50:55;;;;;;;40.87;11.47;;;10.10;99.90;;;;;;5117261;27;20180;-76
2023/03/12 08:53:22;;;;;;;37.83;10.93;;;10.30;99.90;;;;;;5125809;27;20169;-77
2023/03/12 08:55:54;;;;;;;39.83;11.17;;;10.40;99.90;;;;;;5115487;28;20158;-76
2023/03/12 08:58:20;;;;;;;42.93;10.10;;;10.40;99.90;;;;;;5130495;27;20216;-77
2023/03/12 09:00:46;;;;;;;43.77;10.47;;;10.40;99.90;;;;;;5111981;28;20205;-77
2023/03/12 09:03:13;;;;;;;40.47;10.67;;;10.60;99.90;;;;;;5121711;27;20185;-77
2023/03/12 09:05:40;;;;;;;35.50;8.97;;;10.80;99.90;;;;;;5096985;28;20193;-76
2023/03/12 09:08:06;;;;;;;40.80;10.37;;;10.70;99.90;;;;;;5114471;28;20678;-76
2023/03/12 09:10:32;;;;;;;36.93;9.10;;;10.80;99.90;;;;;;5112262;27;20168;-77
2023/03/12 09:12:58;;;;;;;55.93;9.63;;;10.90;99.90;;;;;;5134267;27;20626;-76
2023/03/12 09:15:23;;;;;;;43.23;9.30;;;11.00;99.90;;;;;;5098234;27;20170;-78
2023/03/12 09:17:54;;;;;;;37.97;9.50;;;10.90;99.90;;;;;;5112833;27;20176;-76
2023/03/12 09:20:22;;;;;;;42.87;9.00;;;10.70;99.90;;;;;;5122204;27;20326;-76
2023/03/12 09:22:51;;;;;;;39.37;8.27;;;11.00;99.90;;;;;;5135349;27;20172;-77
2023/03/12 09:25:32;;;;;;;44.90;8.77;;;11.10;99.90;;;;;;5135150;27;20165;-78
2023/03/12 09:27:57;;;;;;;42.37;8.13;;;11.20;99.90;;;;;;5134971;27;20200;-76
2023/03/12 09:30:25;;;;;;;38.10;8.43;;;11.30;99.90;;;;;;5126791;27;20176;-76
2023/03/12 09:32:53;;;;;;;40.30;8.73;;;11.30;99.90;;;;;;5096054;28;20509;-76
2023/03/12 09:35:20;;;;;;;32.80;7.67;;;11.50;99.90;;;;;;5097240;28;20185;-76
2023/03/12 09:37:51;;;;;;;32.37;7.00;;;11.50;99.90;;;;;;5126056;27;20169;-76
2023/03/12 09:40:22;;;;;;;31.67;6.97;;;11.70;99.90;;;;;;5136089;27;20153;-76
2023/03/12 09:42:59;;;;;;;32.93;7.50;;;11.60;99.90;;;;;;5135645;27;20180;-76
2023/03/12 09:45:46;;;;;;;37.23;6.87;;;11.90;99.90;;;;;;5121042;27;20166;-75
2023/03/12 09:48:16;;;;;;;30.87;6.77;;;12.10;99.90;;;;;;5116275;27;20549;-75
2023/03/12 09:50:47;;;;;;;36.70;5.67;;;12.20;99.90;;;;;;5135860;27;20197;-76
2023/03/12 09:53:31;;;;;;;37.90;7.97;;;12.50;99.90;;;;;;5136888;27;20209;-75
2023/03/12 09:56:07;;;;;;;37.03;7.40;;;12.60;99.90;;;;;;5136241;27;20218;-75
2023/03/12 09:58:37;;;;;;;32.77;6.67;;;12.50;99.90;;;;;;5134967;27;20320;-75
2023/03/12 10:01:14;;;;;;;34.57;6.10;;;12.20;99.90;;;;;;5134657;27;20195;-75
2023/03/12 10:03:52;;;;;;;32.57;7.10;;;12.30;99.90;;;;;;5134687;27;20170;-75
2023/03/12 10:06:46;;;;;;;30.53;7.10;;;12.10;99.90;;;;;;5134567;27;20209;-75
2023/03/12 10:09:50;;;;;;;33.10;6.90;;;12.30;99.90;;;;;;5106255;28;20181;-75
2023/03/12 10:12:42;;;;;;;43.63;7.20;;;12.50;99.90;;;;;;5114518;28;20209;-74
2023/03/12 10:15:49;;;;;;;30.77;6.70;;;12.30;99.90;;;;;;5114760;28;20232;-76
2023/03/12 10:18:41;;;;;;;39.53;6.77;;;12.30;99.90;;;;;;5103556;27;20203;-79
2023/03/12 10:21:12;;;;;;;36.63;7.37;;;12.30;99.90;;;;;;5115875;27;20173;-74
2023/03/12 10:24:34;;;;;;;35.27;6.03;;;12.30;99.90;;;;;;5116069;27;20534;-75
2023/03/12 10:27:00;;;;;;;29.83;5.87;;;12.30;99.90;;;;;;5014753;28;20210;-74
2023/03/12 10:29:34;;;;;;;34.73;7.73;;;12.40;99.90;;;;;;5096770;27;20182;-74
2023/03/12 10:32:05;;;;;;;32.20;7.20;;;12.50;99.90;;;;;;5134197;27;20159;-74
2023/03/12 10:34:45;;;;;;;36.77;6.77;;;12.50;99.90;;;;;;5115782;27;20182;-74
2023/03/12 10:37:23;;;;;;;29.93;5.63;;;12.70;99.90;;;;;;5134336;27;20185;-75
2023/03/12 10:39:50;;;;;;;29.80;5.97;;;12.70;99.90;;;;;;5115960;27;20174;-75
2023/03/12 10:42:20;;;;;;;32.50;6.70;;;12.80;99.90;;;;;;5134601;27;20157;-75
2023/03/12 10:44:52;;;;;;;37.30;7.93;;;13.00;99.90;;;;;;5115650;27;20199;-75
2023/03/12 10:47:38;;;;;;;30.53;6.27;;;13.10;99.90;;;;;;5133884;27;20195;-77
2023/03/12 10:50:24;;;;;;;34.13;7.87;;;13.20;99.90;;;;;;5134360;27;20652;-77
2023/03/12 10:53:11;;;;;;;35.40;6.63;;;13.40;99.90;;;;;;5115947;27;20171;-77
2023/03/12 10:55:37;;;;;;;34.30;5.97;;;13.40;99.90;;;;;;5128173;27;20167;-76
2023/03/12 10:58:02;;;;;;;37.17;7.60;;;13.20;99.90;;;;;;5137472;27;20168;-77
2023/03/12 11:00:34;;;;;;;35.70;6.33;;;13.30;99.90;;;;;;5140649;27;20172;-76
2023/03/12 11:03:17;;;;;;;39.50;7.97;;;13.40;99.90;;;;;;5134264;27;20200;-77
2023/03/12 11:05:48;;;;;;;35.43;7.07;;;13.60;99.90;;;;;;5143669;27;20236;-77
2023/03/12 11:08:28;;;;;;;28.83;5.87;;;13.60;99.90;;;;;;5116861;28;20200;-78
2023/03/12 11:10:57;;;;;;;34.03;7.50;;;13.60;99.90;;;;;;5123024;27;20169;-76
2023/03/12 11:13:30;;;;;;;29.53;6.07;;;13.50;99.90;;;;;;5129549;27;20251;-77
2023/03/12 11:16:02;;;;;;;31.77;7.13;;;13.40;99.90;;;;;;5128121;27;20222;-77
2023/03/12 11:18:31;;;;;;;28.30;7.03;;;13.40;99.90;;;;;;5129278;27;20662;-77
2023/03/12 11:21:10;;;;;;;39.43;7.60;;;13.20;99.90;;;;;;5125673;27;20165;-76
2023/03/12 11:23:42;;;;;;;37.90;7.03;;;13.40;99.90;;;;;;5127234;27;20234;-77
2023/03/12 11:26:12;;;;;;;28.37;6.60;;;13.30;99.90;;;;;;5128666;27;20179;-77
2023/03/12 11:28:41;;;;;;;33.73;7.37;;;13.30;99.90;;;;;;5107153;28;20192;-77
2023/03/12 11:31:30;;;;;;;33.17;7.47;;;13.30;99.90;;;;;;5125737;27;20168;-77
2023/03/12 11:34:23;;;;;;;29.83;7.40;;;13.20;99.90;;;;;;5123870;28;20486;-77
2023/03/12 11:37:17;;;;;;;33.83;7.83;;;13.00;99.90;;;;;;5100385;28;20587;-77
2023/03/12 11:40:09;;;;;;;40.23;8.07;;;12.90;99.90;;;;;;5100332;28;20179;-77
2023/03/12 11:42:35;;;;;;;30.87;6.57;;;13.10;99.90;;;;;;5105482;28;20174;-77
2023/03/12 11:45:30;;;;;;;40.07;8.20;;;13.00;99.90;;;;;;5108948;28;20172;-77
2023/03/12 11:48:36;;;;;;;40.23;7.40;;;13.10;99.90;;;;;;5085423;28;20237;-77
2023/03/12 11:51:21;;;;;;;28.73;5.83;;;13.30;99.90;;;;;;5101368;28;20641;-78
2023/03/12 11:54:04;;;;;;;35.17;7.33;;;13.40;99.90;;;;;;5123555;28;20191;-77
2023/03/12 11:56:45;;;;;;;36.03;7.50;;;13.60;99.90;;;;;;5105608;28;20308;-76
2023/03/12 11:59:41;;;;;;;36.13;7.70;;;13.40;99.90;;;;;;5126979;28;20164;-77
2023/03/12 12:03:01;;;;;;;35.13;8.00;;;13.40;99.90;;;;;;5109016;27;20177;-76
2023/03/12 12:05:48;;;;;;;32.10;7.90;;;13.80;99.90;;;;;;5024233;28;20662;-78
2023/03/12 12:08:30;;;;;;;30.93;6.83;;;14.10;99.90;;;;;;5114559;27;20285;-76
2023/03/12 12:11:12;;;;;;;29.57;6.17;;;13.80;99.90;;;;;;5133396;27;20166;-77
2023/03/12 12:14:02;;;;;;;30.57;7.07;;;13.40;99.90;;;;;;5125434;27;20218;-77
2023/03/12 12:16:47;;;;;;;35.77;7.50;;;13.20;99.90;;;;;;5121750;27;20216;-77
2023/03/12 12:19:43;;;;;;;34.13;7.60;;;13.00;99.90;;;;;;5097884;28;20191;-77
2023/03/12 12:22:29;;;;;;;30.30;6.87;;;13.10;99.90;;;;;;5131052;27;20202;-79
2023/03/12 12:25:18;;;;;;;32.27;7.57;;;13.20;99.90;;;;;;5126932;27;20640;-78
2023/03/12 12:27:51;;;;;;;33.87;6.67;;;13.80;99.90;;;;;;5107142;27;20670;-77
2023/03/12 12:30:39;;;;;;;28.27;7.13;;;14.40;99.90;;;;;;5133150;27;20176;-77
2023/03/12 12:33:23;;;;;;;21.17;5.50;;;14.60;99.90;;;;;;5109738;28;20165;-77
2023/03/12 12:35:52;;;;;;;26.23;5.90;;;14.20;99.90;;;;;;5124698;27;20694;-77
2023/03/12 12:38:29;;;;;;;28.00;5.73;;;14.30;99.90;;;;;;5129080;27;20184;-77
2023/03/12 12:41:14;;;;;;;29.70;6.00;;;14.60;99.90;;;;;;5125309;27;20216;-77
2023/03/12 12:43:58;;;;;;;26.97;5.43;;;14.80;99.90;;;;;;5112510;27;20576;-77
2023/03/12 12:46:34;;;;;;;26.07;4.73;;;14.60;99.90;;;;;;5104099;27;20509;-77
2023/03/12 12:49:32;;;;;;;25.87;5.57;;;14.30;99.90;;;;;;5112274;27;20242;-77
2023/03/12 12:52:06;;;;;;;24.70;4.87;;;14.20;99.90;;;;;;5110129;27;20184;-77
2023/03/12 12:54:53;;;;;;;29.43;5.37;;;14.10;99.90;;;;;;5128801;27;20171;-77
2023/03/12 12:57:39;;;;;;;25.33;5.60;;;14.20;99.90;;;;;;5125115;27;20170;-76
2023/03/12 13:00:37;;;;;;;28.60;5.60;;;14.40;99.90;;;;;;5136409;27;20193;-76
2023/03/12 13:03:03;;;;;;;31.00;5.50;;;14.30;99.90;;;;;;5117769;27;20168;-76
2023/03/12 13:05:44;;;;;;;28.20;6.80;;;14.00;99.90;;;;;;5127243;27;20174;-79